createdAt,value
2023-05-14T00:25:38.128Z,10.29
2023-05-14T00:55:42.253Z,10.13
2023-05-14T01:25:45.367Z,9.94
2023-05-14T01:55:48.521Z,9.82
2023-05-14T02:25:51.564Z,9.57
2023-05-14T02:55:54.532Z,9.38
2023-05-14T03:25:57.496Z,9.20
2023-05-14T03:56:00.511Z,8.92
2023-05-14T04:26:03.765Z,9.20
2023-05-14T04:56:07.442Z,9.69
2023-05-14T05:26:10.411Z,10.11
2023-05-14T05:56:13.399Z,10.77
2023-05-14T06:26:16.384Z,11.38
2023-05-14T06:56:19.394Z,12.54
2023-05-14T07:26:22.392Z,13.49
2023-05-14T07:56:25.460Z,15.37
2023-05-14T08:26:28.454Z,17.13
2023-05-14T08:56:31.705Z,19.85
2023-05-14T09:26:35.629Z,20.35
2023-05-14T09:56:38.736Z,23.68
2023-05-14T10:26:42.180Z,23.11
2023-05-14T10:56:45.830Z,24.04
2023-05-14T11:26:48.968Z,25.25
2023-05-14T11:56:52.558Z,25.47
2023-05-14T12:26:55.611Z,23.09
2023-05-14T12:56:58.772Z,25.11
2023-05-14T13:27:01.795Z,25.03
2023-05-14T13:57:05.512Z,24.31
2023-05-14T14:27:08.769Z,25.16
2023-05-14T14:57:14.089Z,24.35
2023-05-14T15:27:17.138Z,20.04
2023-05-14T15:57:20.297Z,17.88
2023-05-14T16:27:23.489Z,16.97
2023-05-14T16:57:26.516Z,16.67
2023-05-14T17:27:29.578Z,15.84
2023-05-14T17:57:34.231Z,15.54
2023-05-14T18:27:37.323Z,15.14
2023-05-14T18:57:40.387Z,14.94
2023-05-14T19:27:43.502Z,14.42
2023-05-14T19:57:46.556Z,14.00
2023-05-14T20:27:49.607Z,13.76
2023-05-14T20:57:52.715Z,13.76
2023-05-14T21:27:56.425Z,13.66
2023-05-14T21:57:59.445Z,13.22
2023-05-14T22:28:02.375Z,13.17
2023-05-14T22:58:05.616Z,12.53
2023-05-14T23:28:08.609Z,11.80
2023-05-14T23:58:11.692Z,11.27
